Time;durP1;ratioP1;P1;durP2;ratioP2;P2;SDS_P1;SDS_P2;PMS_P1;PMS_P2;Temp;Humidity;BMP_temperature;BMP_pressure;BME280_temperature;BME280_humidity;BME280_pressure;Samples;Min_cycle;Max_cycle;Signal;HPM_P1;HPM_P2
2023/08/17 05:32:48;;;;;;;14.10;8.70;;;;;;;-141.97;61.68;47513.31;5370602;23;20226;-81
2023/08/17 05:35:14;;;;;;;13.43;8.80;;;;;;;-141.97;61.80;47494.09;4995320;28;20250;-82
2023/08/17 05:37:39;;;;;;;18.50;9.10;;;;;;;-141.97;61.71;47511.38;5012939;28;20478;-82
2023/08/17 05:40:11;;;;;;;16.13;9.20;;;;;;;-141.97;61.23;47509.47;5087108;27;21097;-81
2023/08/17 05:42:37;;;;;;;13.10;8.60;;;;;;;-141.97;60.85;47515.22;5068260;28;20185;-83
2023/08/17 05:45:02;;;;;;;15.07;8.67;;;;;;;-141.97;59.81;47494.09;5067732;28;20608;-83
2023/08/17 05:47:28;;;;;;;17.87;8.40;;;;;;;-141.97;58.53;47501.78;5066183;28;20187;-82
2023/08/17 05:49:53;;;;;;;13.17;7.80;;;;;;;-141.97;57.92;47503.69;5055055;28;20272;-82
2023/08/17 05:52:19;;;;;;;14.67;7.30;;;;;;;-141.97;56.96;47522.91;5062839;28;20205;-81
2023/08/17 05:54:44;;;;;;;12.80;7.67;;;;;;;-141.97;56.85;47503.69;5061586;28;20613;-82
2023/08/17 05:57:10;;;;;;;10.00;7.13;;;;;;;-141.97;56.86;47396.06;5066079;28;20177;-81
2023/08/17 05:59:36;;;;;;;14.53;7.93;;;;;;;-141.97;57.25;47463.34;5067276;28;20208;-82
2023/08/17 06:02:01;;;;;;;12.93;7.07;;;;;;;-141.97;56.77;47494.09;5065609;28;20254;-82
2023/08/17 06:04:26;;;;;;;13.67;7.43;;;;;;;-141.97;56.84;47476.78;5066380;28;20223;-80
2023/08/17 06:06:52;;;;;;;11.80;7.27;;;;;;;-141.97;56.65;47480.63;5064667;28;20225;-81
2023/08/17 06:09:17;;;;;;;10.23;6.93;;;;;;;-141.97;56.32;47515.22;5066491;28;20177;-80
2023/08/17 06:11:42;;;;;;;11.20;7.27;;;;;;;-141.97;56.30;47497.94;5067024;28;20566;-81
2023/08/17 06:14:08;;;;;;;11.60;7.20;;;;;;;-141.97;55.22;47480.63;5065105;28;20181;-81
2023/08/17 06:16:33;;;;;;;11.80;7.30;;;;;;;-141.97;54.51;47476.78;5066808;28;20189;-79
2023/08/17 06:18:59;;;;;;;15.33;7.67;;;;;;;-141.97;54.04;47601.72;5067209;28;20197;-81
2023/08/17 06:21:25;;;;;;;12.73;7.93;;;;;;;-141.97;52.39;47482.56;5066694;28;20179;-83
2023/08/17 06:23:50;;;;;;;10.50;6.73;;;;;;;-141.97;52.04;47476.78;5065744;28;20180;-82
2023/08/17 06:26:15;;;;;;;12.27;6.87;;;;;;;-141.97;51.53;47661.31;5066918;28;20168;-81
2023/08/17 06:28:41;;;;;;;12.13;6.80;;;;;;;-141.97;52.32;47476.78;5066964;28;20177;-83
2023/08/17 06:31:06;;;;;;;12.10;7.00;;;;;;;-141.97;52.43;47472.94;5066995;28;20169;-83
2023/08/17 06:33:32;;;;;;;15.33;7.07;;;;;;;-141.97;51.59;47434.50;5067041;28;20173;-82
2023/08/17 06:35:57;;;;;;;8.20;6.67;;;;;;;-141.97;50.46;47492.16;5066450;28;20176;-82
2023/08/17 06:38:23;;;;;;;9.93;6.63;;;;;;;-141.97;50.46;47451.81;5065753;28;20608;-82
2023/08/17 06:40:48;;;;;;;9.93;7.07;;;;;;;-141.97;49.33;47438.34;5066941;28;20189;-83
2023/08/17 06:43:14;;;;;;;12.00;6.70;;;;;;;-141.97;49.82;47494.09;5066420;28;20781;-83
2023/08/17 06:45:39;;;;;;;11.02;6.75;;;;;;;-141.97;49.13;47432.59;5066352;28;20670;-82
2023/08/17 06:48:05;;;;;;;11.45;6.90;;;;;;;-141.97;47.85;47434.50;5066285;28;20171;-83
2023/08/17 06:50:30;;;;;;;9.55;6.93;;;;;;;-141.97;46.88;47442.19;5048641;28;20239;-82
2023/08/17 06:52:56;;;;;;;10.82;7.25;;;;;;;-141.97;47.08;47421.06;5052860;28;20164;-83
2023/08/17 06:55:21;;;;;;;10.35;7.13;;;;;;;-141.97;46.40;47461.41;5046279;28;20193;-82
2023/08/17 06:57:49;;;;;;;13.80;7.22;;;;;;;-141.97;46.13;47394.16;5031606;28;20221;-82
2023/08/17 07:00:15;;;;;;;11.98;7.30;;;;;;;-141.97;45.75;47438.34;5032392;28;20168;-80
2023/08/17 07:02:40;;;;;;;9.45;6.47;;;;;;;-141.97;45.43;47398.00;5033098;28;20255;-81
2023/08/17 07:05:06;;;;;;;7.03;5.95;;;;;;;-141.97;45.17;47446.03;5032635;28;20177;-81
2023/08/17 07:07:31;;;;;;;8.98;6.70;;;;;;;-141.97;45.13;47426.81;5032205;28;20605;-81
2023/08/17 07:10:01;;;;;;;8.00;6.00;;;;;;;-141.97;45.83;47407.59;5033202;28;20509;-80
2023/08/17 07:12:27;;;;;;;13.80;6.63;;;;;;;-141.97;44.88;47422.97;5032388;28;20164;-81
2023/08/17 07:14:53;;;;;;;9.15;6.57;;;;;;;-141.97;43.74;47390.31;5034985;28;20537;-84
2023/08/17 07:17:19;;;;;;;8.15;6.35;;;;;;;-141.97;43.33;47392.22;5032628;28;20243;-82
2023/08/17 07:19:44;;;;;;;6.65;5.95;;;;;;;-141.97;43.24;47382.63;5033609;28;20639;-82
2023/08/17 07:22:09;;;;;;;10.77;6.43;;;;;;;-141.97;42.35;47388.38;5034699;28;20575;-81
2023/08/17 07:24:35;;;;;;;11.23;6.40;;;;;;;-141.97;40.98;47642.09;5034355;28;20161;-85
2023/08/17 07:27:00;;;;;;;8.38;6.63;;;;;;;-141.97;40.72;47384.53;5046291;28;20233;-81
2023/08/17 07:29:26;;;;;;;9.13;6.53;;;;;;;-141.97;40.71;47376.84;5047922;28;20208;-83
2023/08/17 07:31:51;;;;;;;10.68;6.03;;;;;;;-141.97;40.98;47361.47;5038103;28;20199;-83
2023/08/17 07:34:17;;;;;;;8.57;5.70;;;;;;;-141.97;40.52;47344.19;5033602;28;20191;-83
2023/08/17 07:36:42;;;;;;;9.57;6.00;;;;;;;-141.97;40.31;47357.63;5032531;28;20181;-83
2023/08/17 07:39:08;;;;;;;9.15;5.70;;;;;;;-141.97;39.54;47363.41;5031801;28;20219;-83
2023/08/17 07:41:33;;;;;;;13.13;6.15;;;;;;;-141.97;39.33;47355.72;5033379;28;20640;-85
2023/08/17 07:43:59;;;;;;;5.95;5.35;;;;;;;-141.97;38.26;47317.28;5032798;28;20240;-85
2023/08/17 07:46:24;;;;;;;9.35;6.40;;;;;;;-141.97;38.48;47371.09;5032974;28;20212;-85
2023/08/17 07:48:50;;;;;;;8.63;6.47;;;;;;;-141.97;38.30;47357.63;5026136;28;20185;-83
2023/08/17 07:51:15;;;;;;;12.10;7.13;;;;;;;-141.97;38.91;47330.72;5013411;28;20191;-84
2023/08/17 07:53:41;;;;;;;8.48;5.20;;;;;;;-141.97;37.92;47338.41;5012718;28;20179;-84
2023/08/17 07:56:06;;;;;;;7.55;5.80;;;;;;;-141.97;37.61;47359.56;5013414;28;20169;-83
2023/08/17 07:58:32;;;;;;;6.40;4.80;;;;;;;-141.97;36.34;47342.25;5029164;28;20278;-84
2023/08/17 08:00:57;;;;;;;7.20;5.22;;;;;;;-141.97;36.09;47313.44;5035317;28;20184;-83
2023/08/17 08:03:23;;;;;;;9.00;5.30;;;;;;;-141.97;35.79;47309.59;5033889;28;20606;-84
2023/08/17 08:05:48;;;;;;;6.72;5.10;;;;;;;-141.97;35.66;47305.75;5033485;28;20161;-84
2023/08/17 08:08:14;;;;;;;8.73;5.00;;;;;;;-141.97;35.32;47315.34;5033145;28;20165;-85
2023/08/17 08:10:40;;;;;;;8.25;5.18;;;;;;;-141.97;35.91;47349.94;5033039;28;20165;-85
2023/08/17 08:13:06;;;;;;;6.57;5.20;;;;;;;-141.97;35.34;47323.03;5033902;28;20177;-85
2023/08/17 08:15:33;;;;;;;5.45;4.95;;;;;;;-141.97;34.94;47299.97;5043492;28;20549;-84
2023/08/17 08:17:58;;;;;;;7.60;5.03;;;;;;;-141.97;35.13;47307.66;5042697;28;20201;-85
2023/08/17 08:20:24;;;;;;;9.13;4.72;;;;;;;-141.97;34.55;47273.06;5033789;28;20618;-83
2023/08/17 08:22:49;;;;;;;10.85;4.47;;;;;;;-141.97;34.11;47234.63;5032737;28;20161;-83
2023/08/17 08:25:14;;;;;;;8.23;4.30;;;;;;;-141.97;33.87;47276.91;5032917;28;20253;-84
2023/08/17 08:27:40;;;;;;;10.45;4.68;;;;;;;-141.97;34.49;47288.44;5032338;28;20171;-83
2023/08/17 08:30:06;;;;;;;6.13;4.40;;;;;;;-141.97;34.88;47311.50;5032258;28;20247;-83
2023/08/17 08:32:32;;;;;;;6.82;4.43;;;;;;;-141.97;35.66;47409.53;5034385;28;20256;-83
2023/08/17 08:34:57;;;;;;;6.45;5.00;;;;;;;-141.97;35.33;47321.13;5021537;28;20287;-83
2023/08/17 08:37:24;;;;;;;5.68;4.28;;;;;;;-141.97;35.07;47311.50;5031949;28;20644;-83
2023/08/17 08:39:53;;;;;;;5.43;4.30;;;;;;;-141.97;34.59;47290.38;5032716;28;20233;-82
2023/08/17 08:42:19;;;;;;;8.52;4.63;;;;;;;-141.97;34.38;47299.97;5032364;28;20162;-83
2023/08/17 08:44:46;;;;;;;10.98;4.72;;;;;;;-141.97;33.92;47250.00;5032929;28;20166;-84
2023/08/17 08:47:12;;;;;;;7.47;4.38;;;;;;;-141.97;33.86;47319.19;5032967;28;20220;-83
2023/08/17 08:49:50;;;;;;;11.25;5.50;;;;;;;-141.97;33.74;47323.03;5031612;28;20256;-83
2023/08/17 08:52:22;;;;;;;8.30;6.00;;;;;;;-141.97;34.00;47290.38;5031938;28;20169;-82
2023/08/17 08:54:50;;;;;;;9.98;4.85;;;;;;;-141.97;34.55;47305.75;5030651;28;20517;-87
2023/08/17 08:57:17;;;;;;;8.30;4.53;;;;;;;-141.97;34.94;47276.91;5030192;28;20185;-85
2023/08/17 08:59:45;;;;;;;9.07;4.72;;;;;;;-141.97;34.14;47292.28;5031832;28;20209;-84
2023/08/17 09:02:16;;;;;;;8.90;4.22;;;;;;;-141.97;33.88;47309.59;5032671;28;20216;-85
2023/08/17 09:04:45;;;;;;;7.13;4.53;;;;;;;-141.97;33.70;47190.44;5031227;28;20260;-86
2023/08/17 09:07:12;;;;;;;5.47;4.00;;;;;;;-141.97;33.70;47303.81;5032479;28;20340;-86
2023/08/17 09:09:38;;;;;;;7.30;4.40;;;;;;;-141.97;33.17;47284.59;5033490;28;20197;-86
2023/08/17 09:12:06;;;;;;;9.27;4.45;;;;;;;-141.97;33.43;47480.63;5034604;28;20166;-86
2023/08/17 09:14:32;;;;;;;5.85;4.20;;;;;;;-141.97;33.24;47269.22;5030030;28;20180;-86
2023/08/17 09:16:58;;;;;;;9.15;4.50;;;;;;;-141.97;33.46;47265.38;5031224;28;20237;-85
2023/08/17 09:19:24;;;;;;;6.45;4.60;;;;;;;-141.97;33.32;47290.38;5031015;28;20204;-85
2023/08/17 09:21:50;;;;;;;7.38;4.50;;;;;;;-141.97;32.97;47230.78;5030144;28;20182;-86
2023/08/17 09:24:15;;;;;;;5.75;5.10;;;;;;;-141.97;32.76;47515.22;5031459;28;20167;-84
2023/08/17 09:26:40;;;;;;;6.97;5.00;;;;;;;-141.97;33.02;47246.16;5031121;28;20166;-84
2023/08/17 09:29:20;;;;;;;9.38;5.82;;;;;;;-141.97;32.71;47240.41;5031211;28;20652;-86
2023/08/17 09:31:46;;;;;;;7.55;4.95;;;;;;;-141.97;32.28;47192.34;5029729;28;20227;-85
2023/08/17 09:34:14;;;;;;;7.28;5.30;;;;;;;-141.97;32.71;47413.38;5031135;28;20658;-86
2023/08/17 09:36:39;;;;;;;5.90;5.18;;;;;;;-141.97;32.88;47299.97;5019415;28;20229;-85
2023/08/17 09:39:05;;;;;;;9.48;5.57;;;;;;;-141.97;33.23;47267.31;5030721;28;20225;-85
2023/08/17 09:41:37;;;;;;;9.75;4.60;;;;;;;-141.97;32.72;47238.47;5031152;28;20220;-85
2023/08/17 09:44:03;;;;;;;8.60;4.65;;;;;;;-141.97;32.83;47265.38;5031074;28;20158;-84
2023/08/17 09:46:29;;;;;;;5.18;4.50;;;;;;;-141.97;32.62;47273.06;5030419;28;20511;-84
2023/08/17 09:48:55;;;;;;;8.63;4.50;;;;;;;-141.97;32.45;47275.00;5030801;28;20177;-84
2023/08/17 09:51:20;;;;;;;10.15;4.53;;;;;;;-141.97;32.31;47257.69;5031394;28;20173;-85
2023/08/17 09:53:52;;;;;;;9.52;4.60;;;;;;;-141.97;31.99;47276.91;5031640;28;20507;-86
2023/08/17 09:56:21;;;;;;;7.38;4.53;;;;;;;-141.97;31.80;47242.31;5030688;28;20177;-85
2023/08/17 09:58:47;;;;;;;7.72;4.53;;;;;;;-141.97;31.63;47549.84;5031579;28;20201;-86
2023/08/17 10:01:13;;;;;;;7.95;4.25;;;;;;;-141.97;31.53;47265.38;5051559;28;20154;-84
2023/08/17 10:03:42;;;;;;;11.88;5.22;;;;;;;-141.97;32.08;47165.44;5049895;28;20166;-85
2023/08/17 10:06:12;;;;;;;9.27;4.22;;;;;;;-141.97;31.94;47299.97;5028653;28;20210;-86
2023/08/17 10:08:43;;;;;;;8.32;4.38;;;;;;;-141.97;32.10;47267.31;5030991;28;20213;-87
2023/08/17 10:11:09;;;;;;;7.03;4.40;;;;;;;-141.97;31.99;47524.84;5029646;28;20261;-85
2023/08/17 10:13:35;;;;;;;6.53;4.68;;;;;;;-141.97;32.66;47276.91;5030655;28;20591;-85
2023/08/17 10:16:26;;;;;;;7.15;4.85;;;;;;;-141.97;32.39;47267.31;5030512;28;20192;-86
2023/08/17 10:19:04;;;;;;;11.10;4.57;;;;;;;-141.97;32.20;47250.00;5031294;28;20190;-86
2023/08/17 10:21:43;;;;;;;5.75;4.47;;;;;;;-141.97;31.80;47588.28;5030622;28;20570;-86
2023/08/17 10:24:11;;;;;;;6.57;4.45;;;;;;;-141.97;31.85;47251.94;5031050;28;20173;-84
2023/08/17 10:26:36;;;;;;;10.60;4.22;;;;;;;-141.97;31.82;47294.22;5034695;28;20260;-85
2023/08/17 10:29:02;;;;;;;5.82;4.05;;;;;;;-141.97;31.63;47257.69;5034061;28;20261;-85
2023/08/17 10:31:29;;;;;;;5.38;3.78;;;;;;;-141.97;31.47;47269.22;5035864;28;20578;-86
2023/08/17 10:33:57;;;;;;;4.63;3.97;;;;;;;-141.97;31.39;47092.41;5037232;28;20177;-85
2023/08/17 10:36:23;;;;;;;7.63;4.00;;;;;;;-141.97;31.67;47265.38;5025070;28;20264;-86
2023/08/17 10:39:24;;;;;;;6.40;4.05;;;;;;;-141.97;31.31;47244.25;5032487;28;20258;-85
2023/08/17 10:41:52;;;;;;;8.55;4.20;;;;;;;-141.97;31.79;47263.47;5026194;28;21368;-86
2023/08/17 10:44:39;;;;;;;4.30;3.90;;;;;;;-141.97;32.14;47572.91;5019658;28;20613;-85
2023/08/17 10:47:27;;;;;;;10.65;3.95;;;;;;;-141.97;31.47;47248.09;5022998;28;20185;-85
2023/08/17 10:50:07;;;;;;;6.13;3.80;;;;;;;-141.97;31.06;47219.25;5035452;28;20262;-86
2023/08/17 10:52:35;;;;;;;6.95;3.88;;;;;;;-141.97;30.72;47599.81;5036470;28;20618;-87
2023/08/17 10:55:06;;;;;;;6.57;3.80;;;;;;;-141.97;30.66;47184.66;5034279;28;20185;-86
2023/08/17 10:57:31;;;;;;;6.22;3.72;;;;;;;-141.97;30.64;47259.63;5033699;28;20612;-85
2023/08/17 11:00:21;;;;;;;4.15;3.75;;;;;;;-141.97;30.57;47150.06;5034065;28;20198;-84
2023/08/17 11:02:54;;;;;;;6.85;4.18;;;;;;;-141.97;30.46;47263.47;5033929;28;20172;-82
2023/08/17 11:05:38;;;;;;;4.93;3.60;;;;;;;-141.97;30.54;47219.25;5033751;28;20531;-83
2023/08/17 11:08:05;;;;;;;6.15;3.65;;;;;;;-141.97;30.52;47250.00;5032750;28;20170;-83
2023/08/17 11:10:31;;;;;;;6.75;3.85;;;;;;;-141.97;30.52;47238.47;5033596;28;20166;-83
2023/08/17 11:13:01;;;;;;;11.27;3.78;;;;;;;-141.97;30.43;47190.44;5033287;28;20273;-83
2023/08/17 11:15:37;;;;;;;4.30;3.90;;;;;;;-141.97;30.33;47263.47;5033966;28;20166;-85
2023/08/17 11:18:03;;;;;;;7.15;4.10;;;;;;;-141.97;30.22;47230.78;5033658;28;20567;-82
2023/08/17 11:20:29;;;;;;;5.47;3.60;;;;;;;-141.97;29.71;47142.38;5036593;28;20241;-81
2023/08/17 11:22:54;;;;;;;9.32;3.83;;;;;;;-141.97;29.89;47232.72;5032834;28;20717;-83
2023/08/17 11:25:20;;;;;;;6.00;3.90;;;;;;;-141.97;30.37;47228.88;5031755;28;20170;-83
2023/08/17 11:27:46;;;;;;;4.82;3.80;;;;;;;-141.97;29.66;47292.28;5032595;28;20174;-82
2023/08/17 11:30:12;;;;;;;6.68;3.67;;;;;;;-141.97;29.40;47251.94;5032967;28;20340;-83
2023/08/17 11:32:38;;;;;;;6.07;4.10;;;;;;;-141.97;28.95;47248.09;5032854;28;20292;-83
2023/08/17 11:35:03;;;;;;;6.43;3.75;;;;;;;-141.97;29.29;47240.41;5036321;28;20257;-83
2023/08/17 11:37:29;;;;;;;9.63;4.28;;;;;;;-141.97;28.90;47200.03;5022828;28;20652;-83
2023/08/17 11:39:54;;;;;;;5.38;3.50;;;;;;;-141.97;27.82;47146.22;5033123;28;20225;-83
2023/08/17 11:42:20;;;;;;;5.28;3.58;;;;;;;-141.97;27.28;47173.13;5034511;28;20177;-83
2023/08/17 11:44:45;;;;;;;5.05;3.55;;;;;;;-141.97;27.08;47169.28;5034176;28;20194;-84
2023/08/17 11:47:11;;;;;;;7.97;3.90;;;;;;;-141.97;26.78;47148.16;5031971;28;20173;-84
2023/08/17 11:49:37;;;;;;;5.97;3.65;;;;;;;-141.97;26.50;47130.84;5030707;28;20208;-81
2023/08/17 11:52:02;;;;;;;4.15;3.45;;;;;;;-141.97;26.03;47130.84;5031997;28;20192;-82
2023/08/17 11:54:28;;;;;;;5.65;3.42;;;;;;;-141.97;25.47;47094.34;5031737;28;20169;-82
2023/08/17 11:56:53;;;;;;;4.50;4.07;;;;;;;-141.97;25.41;46998.25;5031768;28;20174;-82
2023/08/17 11:59:19;;;;;;;3.88;3.58;;;;;;;-141.97;25.29;47080.88;5031950;28;20838;-83
2023/08/17 12:01:45;;;;;;;3.60;3.30;;;;;;;-141.97;25.73;47102.03;5031776;28;20173;-82
2023/08/17 12:04:11;;;;;;;5.32;3.78;;;;;;;-141.97;25.11;47065.50;5031670;28;20192;-83
2023/08/17 12:06:44;;;;;;;5.57;3.60;;;;;;;-141.97;25.17;47065.50;5031824;28;20243;-83
2023/08/17 12:09:09;;;;;;;5.50;3.65;;;;;;;-141.97;25.07;47053.97;5032776;28;20154;-83
2023/08/17 12:11:35;;;;;;;6.43;3.40;;;;;;;-141.97;24.74;47048.22;5043095;28;20257;-82
2023/08/17 12:14:09;;;;;;;5.88;3.55;;;;;;;-141.97;24.53;47084.72;5034883;28;20177;-82
2023/08/17 12:16:34;;;;;;;4.35;3.67;;;;;;;-141.97;24.34;47067.44;5031667;28;20631;-83
2023/08/17 12:18:59;;;;;;;4.53;3.60;;;;;;;-141.97;23.71;46994.41;5032448;28;20199;-83
2023/08/17 12:21:25;;;;;;;6.90;3.55;;;;;;;-141.97;23.35;46992.47;5033873;28;20218;-83
2023/08/17 12:23:51;;;;;;;7.30;3.53;;;;;;;-141.97;23.38;47007.84;5032908;28;20166;-83
2023/08/17 12:26:23;;;;;;;7.10;3.28;;;;;;;-141.97;23.08;47053.97;5032066;28;20177;-83
2023/08/17 12:28:51;;;;;;;5.10;3.35;;;;;;;-141.97;23.58;47025.16;5031759;28;20262;-83
2023/08/17 12:31:22;;;;;;;5.65;3.13;;;;;;;-141.97;23.18;47025.16;5033572;28;20330;-82
2023/08/17 12:33:48;;;;;;;10.55;3.80;;;;;;;-141.97;23.92;47052.06;5045771;28;20207;-83
2023/08/17 12:36:13;;;;;;;4.88;3.33;;;;;;;-141.97;23.02;47057.81;5047174;28;20228;-82
2023/08/17 12:38:44;;;;;;;7.40;3.50;;;;;;;-141.97;23.59;47002.09;5047484;28;20240;-83
2023/08/17 12:41:10;;;;;;;7.53;3.58;;;;;;;-141.97;23.40;47030.91;5031812;28;20169;-83
2023/08/17 12:43:35;;;;;;;5.85;3.80;;;;;;;-141.97;23.92;47050.13;5031052;28;20509;-84
2023/08/17 12:46:00;;;;;;;8.05;3.85;;;;;;;-141.97;24.07;47015.53;5030322;28;20169;-83
2023/08/17 12:48:26;;;;;;;4.85;3.70;;;;;;;-141.97;23.97;47029.00;5030673;28;20157;-83
2023/08/17 12:50:51;;;;;;;5.43;3.40;;;;;;;-141.97;23.26;46977.09;5031446;28;20252;-83
2023/08/17 12:53:16;;;;;;;5.47;3.42;;;;;;;-141.97;23.30;46977.09;5030893;28;20527;-83
2023/08/17 12:55:42;;;;;;;3.40;3.10;;;;;;;-141.97;23.28;46990.56;5030715;28;20166;-83
2023/08/17 12:58:09;;;;;;;4.30;3.45;;;;;;;-141.97;23.75;47021.31;5030367;28;20316;-83
2023/08/17 13:00:35;;;;;;;6.60;3.60;;;;;;;-141.97;23.89;47132.78;5030884;28;20219;-83
2023/08/17 13:03:00;;;;;;;8.15;5.10;;;;;;;-141.97;24.21;47025.16;5030825;28;20542;-82
2023/08/17 13:05:26;;;;;;;9.82;4.28;;;;;;;-141.97;24.15;46992.47;5031038;28;20161;-84
2023/08/17 13:07:51;;;;;;;7.78;4.15;;;;;;;-141.97;23.87;47032.84;5030860;28;20177;-84
2023/08/17 13:10:17;;;;;;;4.05;3.65;;;;;;;-141.97;23.94;47013.63;5030844;28;20544;-84
2023/08/17 13:12:42;;;;;;;5.53;3.65;;;;;;;-141.97;24.00;47007.84;5031066;28;20220;-85
2023/08/17 13:15:08;;;;;;;6.65;3.45;;;;;;;-141.97;24.44;47053.97;5031047;28;20157;-83
2023/08/17 13:17:33;;;;;;;5.78;3.50;;;;;;;-141.97;24.27;47057.81;5030554;28;20553;-84
2023/08/17 13:19:58;;;;;;;5.07;3.50;;;;;;;-141.97;24.36;47027.06;5031014;28;20196;-84
2023/08/17 13:22:24;;;;;;;6.03;4.00;;;;;;;-141.97;24.04;46994.41;5031016;28;20200;-83
2023/08/17 13:24:49;;;;;;;5.38;3.88;;;;;;;-141.97;24.29;46988.63;5030663;28;20196;-83
2023/08/17 13:27:14;;;;;;;6.20;3.80;;;;;;;-141.97;24.01;46980.94;5030074;28;20201;-84
2023/08/17 13:29:40;;;;;;;5.85;3.70;;;;;;;-141.97;24.21;46961.72;5030408;28;20166;-83
2023/08/17 13:32:05;;;;;;;7.15;3.92;;;;;;;-141.97;24.42;47046.28;5030456;28;20248;-82
2023/08/17 13:34:31;;;;;;;6.45;3.65;;;;;;;-141.97;24.62;47021.31;5030441;28;20929;-84
2023/08/17 13:36:56;;;;;;;5.43;3.80;;;;;;;-141.97;24.83;47007.84;5021350;28;20675;-83
2023/08/17 13:39:21;;;;;;;9.55;4.45;;;;;;;-141.97;25.03;47038.59;5030193;28;20221;-83
2023/08/17 13:41:47;;;;;;;7.90;4.00;;;;;;;-141.97;25.04;47042.44;5030346;28;20691;-83
2023/08/17 13:44:12;;;;;;;5.28;3.78;;;;;;;-141.97;24.78;47030.91;5030336;28;20207;-83
2023/08/17 13:46:38;;;;;;;5.85;3.70;;;;;;;-141.97;24.42;46969.41;5030048;28;20197;-83
2023/08/17 13:49:04;;;;;;;6.60;3.83;;;;;;;-141.97;24.45;47000.16;5030223;28;20185;-83
2023/08/17 13:51:30;;;;;;;5.75;4.43;;;;;;;-141.97;24.70;47021.31;5030461;28;20162;-84
2023/08/17 13:53:55;;;;;;;8.95;4.13;;;;;;;-141.97;24.35;46977.09;5030634;28;20501;-84
2023/08/17 13:56:20;;;;;;;6.90;4.22;;;;;;;-141.97;24.04;46961.72;5030123;28;20161;-83
2023/08/17 13:58:46;;;;;;;7.07;4.20;;;;;;;-141.97;24.00;46915.59;5030464;28;20208;-83
2023/08/17 14:01:11;;;;;;;4.68;3.90;;;;;;;-141.97;24.13;47000.16;5032638;28;20583;-84
2023/08/17 14:03:37;;;;;;;4.85;4.00;;;;;;;-141.97;24.00;46971.34;5034107;28;20278;-83
2023/08/17 14:06:02;;;;;;;5.00;3.72;;;;;;;-141.97;23.78;46934.81;5033852;28;20172;-82
2023/08/17 14:08:28;;;;;;;5.82;5.10;;;;;;;-141.97;24.18;46954.03;5033612;28;20170;-82
2023/08/17 14:10:53;;;;;;;5.05;3.88;;;;;;;-141.97;24.57;46934.81;5034020;28;20800;-83
2023/08/17 14:13:19;;;;;;;5.95;4.00;;;;;;;-141.97;24.38;46980.94;5033933;28;20165;-83
2023/08/17 14:15:44;;;;;;;7.88;4.03;;;;;;;-141.97;24.34;46980.94;5034023;28;20648;-83
2023/08/17 14:18:10;;;;;;;6.43;4.10;;;;;;;-141.97;24.12;46923.28;5033592;28;20196;-82
2023/08/17 14:20:35;;;;;;;6.78;4.07;;;;;;;-141.97;24.87;46980.94;5033629;28;20165;-83
2023/08/17 14:23:00;;;;;;;7.97;4.32;;;;;;;-141.97;25.11;47007.84;5033727;28;20161;-83
2023/08/17 14:25:26;;;;;;;9.00;4.05;;;;;;;-141.97;25.24;47015.53;5034026;28;20643;-83
2023/08/17 14:27:51;;;;;;;7.07;4.18;;;;;;;-141.97;25.02;47002.09;5033728;28;20176;-83
2023/08/17 14:30:17;;;;;;;5.38;3.92;;;;;;;-141.97;25.31;46977.09;5033819;28;20185;-83
2023/08/17 14:32:42;;;;;;;7.85;4.30;;;;;;;-141.97;24.38;46973.25;5034197;28;20321;-82
2023/08/17 14:35:07;;;;;;;5.60;4.25;;;;;;;-141.97;24.99;46975.19;5034040;28;20502;-83
2023/08/17 14:37:33;;;;;;;6.13;4.28;;;;;;;-141.97;24.81;46973.25;5023853;28;20217;-83
2023/08/17 14:39:59;;;;;;;7.32;4.15;;;;;;;-141.97;24.14;46969.41;5034091;28;20229;-83
2023/08/17 14:42:25;;;;;;;6.75;3.97;;;;;;;-141.97;23.89;46925.22;5040638;28;20233;-82
2023/08/17 14:44:51;;;;;;;9.07;3.95;;;;;;;-141.97;24.25;46961.72;5035495;28;20165;-84
2023/08/17 14:47:17;;;;;;;5.35;4.30;;;;;;;-141.97;24.47;46934.81;5033682;28;20191;-83
2023/08/17 14:49:42;;;;;;;6.15;4.55;;;;;;;-141.97;24.07;46902.16;5034424;28;20534;-83
2023/08/17 14:52:07;;;;;;;6.65;3.90;;;;;;;-141.97;24.42;46934.81;5035483;28;20165;-85
2023/08/17 14:54:33;;;;;;;5.43;3.88;;;;;;;-141.97;24.20;46942.50;5032934;28;20189;-87
2023/08/17 14:56:58;;;;;;;7.65;4.05;;;;;;;-141.97;24.28;46925.22;5035076;28;20211;-83
2023/08/17 14:59:24;;;;;;;5.07;3.88;;;;;;;-141.97;24.23;46950.19;5034395;28;20302;-83
2023/08/17 15:01:52;;;;;;;7.28;4.32;;;;;;;-141.97;24.49;46938.66;5036392;28;20607;-82
2023/08/17 15:04:17;;;;;;;6.60;4.05;;;;;;;-141.97;24.52;46923.28;5035114;28;20351;-82
2023/08/17 15:06:43;;;;;;;5.97;4.40;;;;;;;-141.97;24.89;47267.31;5046168;28;20181;-82
2023/08/17 15:09:09;;;;;;;4.90;4.40;;;;;;;-141.97;25.16;46917.53;5058530;28;20192;-82
2023/08/17 15:11:35;;;;;;;6.85;4.35;;;;;;;-141.97;25.09;46942.50;5051737;28;20581;-83
2023/08/17 15:14:00;;;;;;;10.80;4.57;;;;;;;-141.97;26.24;46969.41;5033854;28;20308;-83
2023/08/17 15:16:27;;;;;;;7.53;4.63;;;;;;;-141.97;26.88;47030.91;5033477;28;20624;-82
2023/08/17 15:18:53;;;;;;;7.55;5.13;;;;;;;-141.97;27.38;47044.38;5034516;28;20189;-82
2023/08/17 15:21:19;;;;;;;6.38;4.70;;;;;;;-141.97;28.55;47100.09;5034203;28;20208;-83
2023/08/17 15:23:44;;;;;;;6.38;4.70;;;;;;;-141.97;29.21;47159.69;5033644;28;20240;-82
2023/08/17 15:26:10;;;;;;;5.88;4.97;;;;;;;-141.97;29.45;47165.44;5032843;28;20169;-83
2023/08/17 15:28:36;;;;;;;9.20;5.38;;;;;;;-141.97;29.55;47311.50;5032704;28;20594;-83
2023/08/17 15:31:05;;;;;;;6.65;4.70;;;;;;;-141.97;30.08;47123.16;5033872;28;20228;-82
2023/08/17 15:33:31;;;;;;;8.68;4.88;;;;;;;-141.97;30.35;47184.66;5033842;28;20166;-83
2023/08/17 15:35:57;;;;;;;10.30;4.95;;;;;;;-141.97;30.51;47153.91;5033922;28;20185;-83
2023/08/17 15:38:24;;;;;;;7.15;5.10;;;;;;;-141.97;31.02;47188.50;5025085;28;20598;-84
2023/08/17 15:40:50;;;;;;;9.50;5.30;;;;;;;-141.97;30.86;47190.44;5036751;28;20170;-83
2023/08/17 15:43:15;;;;;;;8.20;5.32;;;;;;;-141.97;31.18;47159.69;5033027;28;20180;-84
2023/08/17 15:45:42;;;;;;;6.28;4.82;;;;;;;-141.97;31.37;47171.22;5033788;28;20166;-84
2023/08/17 15:48:07;;;;;;;7.35;5.63;;;;;;;-141.97;31.14;47128.94;5032572;28;20232;-84
2023/08/17 15:50:33;;;;;;;6.75;5.50;;;;;;;-141.97;31.35;47178.91;5033643;28;20169;-82
2023/08/17 15:52:58;;;;;;;9.20;5.35;;;;;;;-141.97;32.10;47209.66;5034012;28;20175;-83
2023/08/17 15:55:23;;;;;;;10.43;6.05;;;;;;;-141.97;32.24;47184.66;5032941;28;20166;-83
2023/08/17 15:57:49;;;;;;;10.13;6.00;;;;;;;-141.97;32.28;47225.03;5032697;28;20170;-84
2023/08/17 16:00:14;;;;;;;9.85;6.05;;;;;;;-141.97;32.65;47196.19;5046761;28;20177;-83
2023/08/17 16:02:40;;;;;;;8.25;6.20;;;;;;;-141.97;32.65;47225.03;5046524;28;20607;-83
2023/08/17 16:05:05;;;;;;;9.55;6.30;;;;;;;-141.97;32.68;47203.88;5033401;28;20158;-83
2023/08/17 16:07:31;;;;;;;7.75;5.85;;;;;;;-141.97;32.89;47178.91;5033310;28;20173;-82
2023/08/17 16:09:56;;;;;;;8.82;6.10;;;;;;;-141.97;33.06;47188.50;5034457;28;20526;-83
2023/08/17 16:12:21;;;;;;;7.68;6.07;;;;;;;-141.97;33.24;47255.78;5033341;28;20257;-83
2023/08/17 16:14:47;;;;;;;7.85;6.30;;;;;;;-141.97;33.35;47217.34;5032255;28;20211;-83
2023/08/17 16:17:12;;;;;;;8.70;6.25;;;;;;;-141.97;33.45;47215.41;5032380;28;20169;-85
2023/08/17 16:19:37;;;;;;;8.80;6.57;;;;;;;-141.97;33.41;47234.63;5031850;28;20214;-82
2023/08/17 16:22:03;;;;;;;10.35;6.80;;;;;;;-141.97;33.62;47194.28;5032171;28;20178;-83
2023/08/17 16:24:28;;;;;;;9.70;6.90;;;;;;;-141.97;33.81;47209.66;5031347;28;20324;-85
2023/08/17 16:26:54;;;;;;;12.70;7.57;;;;;;;-141.97;33.87;47175.06;5031962;28;20254;-84
2023/08/17 16:29:20;;;;;;;9.32;7.30;;;;;;;-141.97;34.05;47205.81;5030201;28;20257;-83
2023/08/17 16:31:59;;;;;;;14.93;7.57;;;;;;;-141.97;33.98;47261.53;5031486;28;20220;-84
2023/08/17 16:34:25;;;;;;;11.25;7.50;;;;;;;-141.97;34.33;47044.38;5031863;28;20168;-83
2023/08/17 16:36:50;;;;;;;9.88;8.27;;;;;;;-141.97;34.53;47234.63;5021448;28;20233;-84
2023/08/17 16:39:15;;;;;;;13.38;8.35;;;;;;;-141.97;34.68;47232.72;5031339;28;20287;-84
2023/08/17 16:41:41;;;;;;;12.20;8.40;;;;;;;-141.97;34.53;47015.53;5031868;28;20177;-84
2023/08/17 16:44:06;;;;;;;16.67;8.15;;;;;;;-141.97;34.81;47271.16;5032401;28;20942;-84